createdAt,value
2018-03-08T00:02:16.626Z,5.06
2018-03-08T00:04:50.660Z,5.07
2018-03-08T00:07:23.913Z,5.06
2018-03-08T00:09:57.186Z,5.05
2018-03-08T00:12:30.454Z,5.06
2018-03-08T00:15:03.721Z,5.07
2018-03-08T01:45:55.929Z,5.16
2018-03-08T01:48:29.967Z,5.13
2018-03-08T01:51:03.245Z,5.11
2018-03-08T01:53:36.493Z,5.11
2018-03-08T01:56:09.766Z,5.11
2018-03-08T01:58:43.012Z,5.09
2018-03-08T03:32:21.912Z,4.86
2018-03-08T03:34:55.157Z,4.85
2018-03-08T03:37:29.202Z,4.85
2018-03-08T03:40:02.440Z,4.85
2018-03-08T03:42:35.712Z,4.85
2018-03-08T03:45:08.953Z,4.85
2018-03-08T04:46:17.445Z,4.63
2018-03-08T04:48:50.730Z,4.62
2018-03-08T04:51:23.954Z,4.63
2018-03-08T04:53:57.226Z,4.63
2018-03-08T04:56:30.484Z,4.63
2018-03-08T04:59:03.756Z,4.63
2018-03-08T05:30:59.378Z,4.55
2018-03-08T05:33:32.653Z,4.54
2018-03-08T05:36:05.901Z,4.52
2018-03-08T05:38:39.221Z,4.51
2018-03-08T05:41:12.476Z,4.50
2018-03-08T05:43:45.745Z,4.51
2018-03-08T05:46:19.009Z,4.52
2018-03-08T05:48:52.281Z,4.51
2018-03-08T05:51:25.520Z,4.51
2018-03-08T05:53:58.804Z,4.51
2018-03-08T05:56:32.817Z,4.52
2018-03-08T05:59:06.869Z,4.52
2018-03-08T06:01:40.139Z,4.52
2018-03-08T06:04:13.377Z,4.51
2018-03-08T06:06:46.657Z,4.52
2018-03-08T06:09:19.909Z,4.52
2018-03-08T06:11:53.934Z,4.52
2018-03-08T06:14:27.216Z,4.51
2018-03-08T06:17:01.225Z,4.50
2018-03-08T06:19:35.398Z,4.49
2018-03-08T06:22:08.636Z,4.47
2018-03-08T06:24:41.900Z,4.46
2018-03-08T06:27:15.148Z,4.44
2018-03-08T06:29:48.431Z,4.43
2018-03-08T06:32:21.702Z,4.42
2018-03-08T06:34:55.754Z,4.42
2018-03-08T06:37:29.577Z,4.45
2018-03-08T06:40:02.866Z,4.45
2018-03-08T06:42:36.118Z,4.48
2018-03-08T06:45:10.153Z,4.51
2018-03-08T06:47:43.393Z,4.52
2018-03-08T06:50:16.661Z,4.55
2018-03-08T06:52:49.934Z,4.56
2018-03-08T06:55:23.205Z,4.58
2018-03-08T06:57:56.481Z,4.60
2018-03-08T07:00:29.734Z,4.62
2018-03-08T07:03:03.018Z,4.65
2018-03-08T07:05:36.286Z,4.68
2018-03-08T07:08:09.580Z,4.70
2018-03-08T07:10:42.830Z,4.72
2018-03-08T07:13:16.108Z,4.73
2018-03-08T07:15:49.417Z,4.76
2018-03-08T07:18:22.721Z,4.78
2018-03-08T07:20:55.967Z,4.79
2018-03-08T07:23:29.230Z,4.83
2018-03-08T07:26:03.247Z,4.85
2018-03-08T07:28:37.322Z,4.88
2018-03-08T08:03:31.906Z,5.29
2018-03-08T08:09:16.645Z,5.37
2018-03-08T08:11:49.922Z,5.40
2018-03-08T08:14:23.170Z,5.43
2018-03-08T09:02:29.661Z,6.02
2018-03-08T09:05:03.670Z,6.05
2018-03-08T09:07:37.729Z,6.08
2018-03-08T09:10:10.953Z,6.11
2018-03-08T09:12:44.230Z,6.14
2018-03-08T10:00:56.206Z,7.20
2018-03-08T10:03:29.478Z,7.28
2018-03-08T10:06:02.724Z,7.36
2018-03-08T10:08:35.993Z,7.42
2018-03-08T10:11:10.002Z,7.49
2018-03-08T10:13:44.056Z,7.56
2018-03-08T11:04:52.739Z,8.10
2018-03-08T11:07:26.010Z,8.18
2018-03-08T11:09:59.262Z,8.24
2018-03-08T11:12:32.533Z,8.29
2018-03-08T11:15:05.776Z,8.34
2018-03-08T12:03:11.120Z,8.62
2018-03-08T12:05:44.369Z,8.69
2018-03-08T12:08:17.650Z,8.81
2018-03-08T12:10:51.652Z,8.89
2018-03-08T12:13:25.700Z,8.94
2018-03-08T13:01:32.578Z,9.43
2018-03-08T13:04:06.593Z,9.45
2018-03-08T13:06:39.885Z,9.45
2018-03-08T13:09:13.146Z,9.49
2018-03-08T13:11:46.427Z,9.52
2018-03-08T13:14:19.661Z,9.59
2018-03-08T14:02:27.430Z,11.77
2018-03-08T14:05:01.479Z,11.91
2018-03-08T14:07:34.738Z,11.96
2018-03-08T14:10:08.894Z,12.11
2018-03-08T14:12:42.189Z,12.21
2018-03-08T15:00:55.793Z,11.19
2018-03-08T15:03:29.083Z,11.13
2018-03-08T15:06:02.342Z,11.09
2018-03-08T15:08:35.597Z,11.04
2018-03-08T15:11:08.872Z,11.00
2018-03-08T15:13:42.153Z,10.97
2018-03-08T15:45:54.076Z,10.73
2018-03-08T15:48:27.329Z,10.76
2018-03-08T15:51:00.618Z,10.80
2018-03-08T15:53:33.874Z,10.79
2018-03-08T15:56:07.167Z,10.75
2018-03-08T15:58:40.445Z,10.70
2018-03-08T16:30:56.300Z,10.20
2018-03-08T16:33:29.549Z,10.16
2018-03-08T16:36:02.865Z,10.14
2018-03-08T16:38:36.085Z,10.11
2018-03-08T16:41:09.369Z,10.09
2018-03-08T16:43:42.633Z,10.06
2018-03-08T16:46:15.930Z,10.04
2018-03-08T16:48:49.933Z,10.02
2018-03-08T16:51:23.437Z,9.99
2018-03-08T16:53:56.685Z,9.96
2018-03-08T16:56:29.966Z,9.94
2018-03-08T16:59:03.234Z,9.92
2018-03-08T17:01:37.254Z,9.91
2018-03-08T17:04:11.294Z,9.88
2018-03-08T17:06:44.554Z,9.86
2018-03-08T17:09:18.639Z,9.83
2018-03-08T17:11:51.837Z,9.82
2018-03-08T17:14:25.105Z,9.79
2018-03-08T17:16:58.354Z,9.78
2018-03-08T17:19:32.399Z,9.77
2018-03-08T17:22:05.650Z,9.76
2018-03-08T17:24:38.925Z,9.74
2018-03-08T17:27:12.194Z,9.72
2018-03-08T17:29:45.442Z,9.72
2018-03-08T17:32:18.879Z,9.70
2018-03-08T17:34:52.340Z,9.69
2018-03-08T17:37:25.834Z,9.68
2018-03-08T17:39:59.241Z,9.66
2018-03-08T17:42:32.547Z,9.66
2018-03-08T17:45:05.787Z,9.64
2018-03-08T17:47:39.060Z,9.64
2018-03-08T17:50:12.304Z,9.63
2018-03-08T17:52:46.346Z,9.62
2018-03-08T17:55:19.616Z,9.61
2018-03-08T17:57:53.690Z,9.61
2018-03-08T18:00:26.967Z,9.61
2018-03-08T18:03:00.231Z,9.61
2018-03-08T18:05:33.481Z,9.61
2018-03-08T18:08:06.732Z,9.61
2018-03-08T18:10:40.008Z,9.60
2018-03-08T18:13:13.272Z,9.60
2018-03-08T18:15:47.290Z,9.60
2018-03-08T18:18:21.331Z,9.59
2018-03-08T18:20:54.590Z,9.57
2018-03-08T18:23:29.745Z,9.56
2018-03-08T18:26:06.370Z,9.54
2018-03-08T18:28:41.584Z,9.52
2018-03-08T18:31:14.834Z,9.51
2018-03-08T18:33:48.105Z,9.49
2018-03-08T18:36:21.390Z,9.47
2018-03-08T18:38:54.671Z,9.45
2018-03-08T18:41:27.913Z,9.42
2018-03-08T18:44:01.215Z,9.39
2018-03-08T18:46:35.226Z,9.39
2018-03-08T18:49:09.265Z,9.35
2018-03-08T18:51:42.514Z,9.33
2018-03-08T18:54:15.798Z,9.30
2018-03-08T18:56:49.042Z,9.27
2018-03-08T18:59:22.336Z,9.26
2018-03-08T19:01:55.579Z,9.22
2018-03-08T19:04:28.858Z,9.19
2018-03-08T19:07:02.116Z,9.17
2018-03-08T19:09:35.381Z,9.14
2018-03-08T19:12:09.452Z,9.13
2018-03-08T19:14:42.698Z,9.11
2018-03-08T19:17:15.982Z,9.06
2018-03-08T19:19:49.236Z,9.04
2018-03-08T19:22:22.507Z,9.01
2018-03-08T19:24:55.761Z,8.99
2018-03-08T19:27:29.802Z,8.96
2018-03-08T19:30:03.049Z,8.94
2018-03-08T19:32:36.448Z,8.92
2018-03-08T19:35:10.481Z,8.91
2018-03-08T19:37:44.514Z,8.89
2018-03-08T19:40:17.789Z,8.87
2018-03-08T19:42:51.056Z,8.86
2018-03-08T19:45:24.310Z,8.85
2018-03-08T19:47:57.590Z,8.84
2018-03-08T19:50:30.848Z,8.82
2018-03-08T19:53:04.144Z,8.82
2018-03-08T19:55:38.157Z,8.82
2018-03-08T19:58:12.190Z,8.82
2018-03-08T20:00:45.683Z,8.80
2018-03-08T20:03:19.918Z,8.80
2018-03-08T20:05:53.182Z,8.80
2018-03-08T20:08:26.446Z,8.80
2018-03-08T20:10:59.701Z,8.79
2018-03-08T20:13:32.976Z,8.78
2018-03-08T20:16:07.056Z,8.76
2018-03-08T20:18:40.266Z,8.74
2018-03-08T20:21:13.529Z,8.73
2018-03-08T20:23:46.801Z,8.70
2018-03-08T20:26:20.076Z,8.69
2018-03-08T20:28:53.324Z,8.69
2018-03-08T20:31:26.603Z,8.70
2018-03-08T20:33:59.849Z,8.70
2018-03-08T20:36:33.121Z,8.71
2018-03-08T20:39:07.138Z,8.71
2018-03-08T20:41:41.177Z,8.69
2018-03-08T20:44:14.432Z,8.68
2018-03-08T20:46:47.694Z,8.69
2018-03-08T20:49:20.946Z,8.67
2018-03-08T20:51:54.228Z,8.66
2018-03-08T20:54:28.241Z,8.66
2018-03-08T20:57:02.282Z,8.66
2018-03-08T20:59:35.536Z,8.65
2018-03-08T21:02:09.583Z,8.65
2018-03-08T21:04:42.842Z,8.63
2018-03-08T21:07:16.885Z,8.61
2018-03-08T21:09:50.133Z,8.60
2018-03-08T21:12:23.405Z,8.60
2018-03-08T21:14:56.682Z,8.59
2018-03-08T21:17:30.128Z,8.58
2018-03-08T21:20:04.173Z,8.56
2018-03-08T21:22:37.429Z,8.55
2018-03-08T21:25:10.702Z,8.53
2018-03-08T21:27:43.954Z,8.51
2018-03-08T21:30:17.244Z,8.50
2018-03-08T21:32:50.497Z,8.49
2018-03-08T21:35:23.779Z,8.49
2018-03-08T21:37:57.064Z,8.48
2018-03-08T21:40:30.340Z,8.48
2018-03-08T21:43:03.581Z,8.48
2018-03-08T21:45:36.863Z,8.49
2018-03-08T21:48:10.122Z,8.48
2018-03-08T21:50:43.380Z,8.48
2018-03-08T21:53:17.401Z,8.46
2018-03-08T21:55:50.674Z,8.44
2018-03-08T21:58:23.962Z,8.42
2018-03-08T22:00:57.211Z,8.39
2018-03-08T22:03:30.489Z,8.35
2018-03-08T22:06:03.742Z,8.32
2018-03-08T22:08:37.002Z,8.29
2018-03-08T22:11:10.454Z,8.27
2018-03-08T22:13:44.461Z,8.26
2018-03-08T22:16:17.745Z,8.22
2018-03-08T22:18:51.752Z,8.22
2018-03-08T22:21:25.028Z,8.19
2018-03-08T22:23:58.357Z,8.18
2018-03-08T22:26:31.635Z,8.15
2018-03-08T22:29:04.870Z,8.12
2018-03-08T22:31:38.170Z,8.10
2018-03-08T22:34:11.409Z,8.09
2018-03-08T22:36:44.713Z,8.07
2018-03-08T22:39:18.724Z,8.06
2018-03-08T22:41:52.757Z,8.05
2018-03-08T22:44:26.009Z,8.05
2018-03-08T22:46:59.286Z,8.04
2018-03-08T22:49:32.530Z,8.03
2018-03-08T22:52:06.563Z,8.03
2018-03-08T22:54:39.841Z,8.01
2018-03-08T22:57:13.868Z,8.01
2018-03-08T22:59:47.112Z,7.99
2018-03-08T23:02:25.834Z,7.97
2018-03-08T23:04:59.078Z,7.96
2018-03-08T23:07:32.367Z,7.95
2018-03-08T23:10:05.604Z,7.94
2018-03-08T23:12:38.889Z,7.93
2018-03-08T23:15:12.134Z,7.92
2018-03-08T23:17:46.180Z,7.91
2018-03-08T23:20:19.449Z,7.89
2018-03-08T23:22:52.721Z,7.88
2018-03-08T23:25:26.734Z,7.88
2018-03-08T23:28:00.829Z,7.88
2018-03-08T23:30:34.065Z,7.86
2018-03-08T23:33:07.355Z,7.86
2018-03-08T23:35:40.606Z,7.84
2018-03-08T23:38:13.881Z,7.85
2018-03-08T23:40:47.153Z,7.84
2018-03-08T23:43:20.415Z,7.85
2018-03-08T23:45:54.428Z,7.85
2018-03-08T23:48:28.461Z,7.86
2018-03-08T23:51:01.734Z,7.84
2018-03-08T23:53:35.762Z,7.85
2018-03-08T23:56:09.024Z,7.85
2018-03-08T23:58:42.281Z,7.82
